sensor_id;sensor_type;location;lat;lon;timestamp;temperature;humidity
13344;DHT22;6741;48.964;9.406;2022-11-18T00:02:22;8.00;99.90
13344;DHT22;6741;48.964;9.406;2022-11-18T00:04:49;8.00;99.90
13344;DHT22;6741;48.964;9.406;2022-11-18T00:07:16;8.10;99.90
13344;DHT22;6741;48.964;9.406;2022-11-18T00:09:44;8.10;99.90
13344;DHT22;6741;48.964;9.406;2022-11-18T00:12:11;8.10;99.90
13344;DHT22;6741;48.964;9.406;2022-11-18T00:14:56;8.10;99.90
13344;DHT22;6741;48.964;9.406;2022-11-18T00:17:23;8.10;99.90
13344;DHT22;6741;48.964;9.406;2022-11-18T00:19:50;8.00;99.90
13344;DHT22;6741;48.964;9.406;2022-11-18T00:22:17;8.00;99.90
13344;DHT22;6741;48.964;9.406;2022-11-18T00:24:46;7.90;99.90
13344;DHT22;6741;48.964;9.406;2022-11-18T00:27:13;7.90;99.90
13344;DHT22;6741;48.964;9.406;2022-11-18T00:29:40;8.00;99.90
13344;DHT22;6741;48.964;9.406;2022-11-18T00:32:07;7.90;99.90
13344;DHT22;6741;48.964;9.406;2022-11-18T00:34:34;8.00;99.90
13344;DHT22;6741;48.964;9.406;2022-11-18T00:37:01;8.00;99.90
13344;DHT22;6741;48.964;9.406;2022-11-18T00:39:28;8.00;99.90
13344;DHT22;6741;48.964;9.406;2022-11-18T00:41:57;8.00;99.90
13344;DHT22;6741;48.964;9.406;2022-11-18T00:44:41;8.00;99.90
13344;DHT22;6741;48.964;9.406;2022-11-18T00:47:08;8.00;99.90
13344;DHT22;6741;48.964;9.406;2022-11-18T00:49:35;8.00;99.90
13344;DHT22;6741;48.964;9.406;2022-11-18T00:52:02;8.10;99.90
13344;DHT22;6741;48.964;9.406;2022-11-18T00:54:30;8.10;99.90
13344;DHT22;6741;48.964;9.406;2022-11-18T00:56:58;8.00;99.90
13344;DHT22;6741;48.964;9.406;2022-11-18T00:59:25;8.00;99.90
13344;DHT22;6741;48.964;9.406;2022-11-18T01:01:52;8.00;99.90
13344;DHT22;6741;48.964;9.406;2022-11-18T01:04:19;8.00;99.90
13344;DHT22;6741;48.964;9.406;2022-11-18T01:06:46;8.00;99.90
13344;DHT22;6741;48.964;9.406;2022-11-18T01:09:13;8.00;99.90
13344;DHT22;6741;48.964;9.406;2022-11-18T01:11:40;8.10;99.90
13344;DHT22;6741;48.964;9.406;2022-11-18T01:14:25;8.10;99.90
13344;DHT22;6741;48.964;9.406;2022-11-18T01:16:53;8.10;99.90
13344;DHT22;6741;48.964;9.406;2022-11-18T01:19:21;8.00;99.90
13344;DHT22;6741;48.964;9.406;2022-11-18T01:21:48;8.00;99.90
13344;DHT22;6741;48.964;9.406;2022-11-18T01:24:15;8.00;99.90
13344;DHT22;6741;48.964;9.406;2022-11-18T01:26:42;7.90;99.90
13344;DHT22;6741;48.964;9.406;2022-11-18T01:29:09;7.90;99.90
13344;DHT22;6741;48.964;9.406;2022-11-18T01:31:38;7.90;99.90
13344;DHT22;6741;48.964;9.406;2022-11-18T01:34:05;7.90;99.90
13344;DHT22;6741;48.964;9.406;2022-11-18T01:36:32;7.90;99.90
13344;DHT22;6741;48.964;9.406;2022-11-18T01:38:59;7.90;99.90
13344;DHT22;6741;48.964;9.406;2022-11-18T01:41:26;7.90;99.90
13344;DHT22;6741;48.964;9.406;2022-11-18T01:43:56;7.90;99.90
13344;DHT22;6741;48.964;9.406;2022-11-18T01:46:25;7.80;99.90
13344;DHT22;6741;48.964;9.406;2022-11-18T01:48:57;7.90;99.90
13344;DHT22;6741;48.964;9.406;2022-11-18T01:51:28;7.80;99.90
13344;DHT22;6741;48.964;9.406;2022-11-18T01:53:58;7.80;99.90
13344;DHT22;6741;48.964;9.406;2022-11-18T01:56:32;7.80;99.90
13344;DHT22;6741;48.964;9.406;2022-11-18T01:59:02;7.80;99.90
13344;DHT22;6741;48.964;9.406;2022-11-18T02:01:32;7.90;99.90
13344;DHT22;6741;48.964;9.406;2022-11-18T02:04:00;7.90;99.90
13344;DHT22;6741;48.964;9.406;2022-11-18T02:06:27;7.90;99.90
13344;DHT22;6741;48.964;9.406;2022-11-18T02:08:55;7.90;99.90
13344;DHT22;6741;48.964;9.406;2022-11-18T02:11:22;7.90;99.90
13344;DHT22;6741;48.964;9.406;2022-11-18T02:14:08;7.90;99.90
13344;DHT22;6741;48.964;9.406;2022-11-18T02:16:51;7.90;99.90
13344;DHT22;6741;48.964;9.406;2022-11-18T02:19:40;7.80;99.90
13344;DHT22;6741;48.964;9.406;2022-11-18T02:22:24;7.80;99.90
13344;DHT22;6741;48.964;9.406;2022-11-18T02:25:04;7.90;99.90
13344;DHT22;6741;48.964;9.406;2022-11-18T02:27:59;7.90;99.90
13344;DHT22;6741;48.964;9.406;2022-11-18T02:30:39;7.90;99.90
13344;DHT22;6741;48.964;9.406;2022-11-18T02:33:11;8.00;99.90
13344;DHT22;6741;48.964;9.406;2022-11-18T02:35:40;8.00;99.90
13344;DHT22;6741;48.964;9.406;2022-11-18T02:38:10;8.00;99.90
13344;DHT22;6741;48.964;9.406;2022-11-18T02:40:41;8.00;99.90
13344;DHT22;6741;48.964;9.406;2022-11-18T02:43:14;8.00;99.90
13344;DHT22;6741;48.964;9.406;2022-11-18T02:45:47;7.90;99.90
13344;DHT22;6741;48.964;9.406;2022-11-18T02:48:17;7.90;99.90
13344;DHT22;6741;48.964;9.406;2022-11-18T02:50:46;7.90;99.90
13344;DHT22;6741;48.964;9.406;2022-11-18T02:53:18;7.90;99.90
13344;DHT22;6741;48.964;9.406;2022-11-18T02:55:45;7.90;99.90
13344;DHT22;6741;48.964;9.406;2022-11-18T02:58:15;7.90;99.90
13344;DHT22;6741;48.964;9.406;2022-11-18T03:00:52;7.90;99.90
13344;DHT22;6741;48.964;9.406;2022-11-18T03:03:25;7.90;99.90
13344;DHT22;6741;48.964;9.406;2022-11-18T03:05:59;8.00;99.90
13344;DHT22;6741;48.964;9.406;2022-11-18T03:08:33;7.90;99.90
13344;DHT22;6741;48.964;9.406;2022-11-18T03:11:08;7.90;99.90
13344;DHT22;6741;48.964;9.406;2022-11-18T03:13:42;7.90;99.90
13344;DHT22;6741;48.964;9.406;2022-11-18T03:16:20;7.90;99.90
13344;DHT22;6741;48.964;9.406;2022-11-18T03:18:53;7.90;99.90
13344;DHT22;6741;48.964;9.406;2022-11-18T03:21:29;7.80;99.90
13344;DHT22;6741;48.964;9.406;2022-11-18T03:24:01;7.80;99.90
13344;DHT22;6741;48.964;9.406;2022-11-18T03:26:32;7.80;99.90
13344;DHT22;6741;48.964;9.406;2022-11-18T03:29:05;7.80;99.90
13344;DHT22;6741;48.964;9.406;2022-11-18T03:31:37;7.80;99.90
13344;DHT22;6741;48.964;9.406;2022-11-18T03:34:08;7.80;99.90
13344;DHT22;6741;48.964;9.406;2022-11-18T03:36:39;7.70;99.90
13344;DHT22;6741;48.964;9.406;2022-11-18T03:39:08;7.80;99.90
13344;DHT22;6741;48.964;9.406;2022-11-18T03:41:39;7.70;99.90
13344;DHT22;6741;48.964;9.406;2022-11-18T03:44:13;7.70;99.90
13344;DHT22;6741;48.964;9.406;2022-11-18T03:46:46;7.70;99.90
13344;DHT22;6741;48.964;9.406;2022-11-18T03:49:18;7.70;99.90
13344;DHT22;6741;48.964;9.406;2022-11-18T03:51:52;7.70;99.90
13344;DHT22;6741;48.964;9.406;2022-11-18T03:54:23;7.70;99.90
13344;DHT22;6741;48.964;9.406;2022-11-18T03:56:55;7.60;99.90
13344;DHT22;6741;48.964;9.406;2022-11-18T03:59:26;7.60;99.90
13344;DHT22;6741;48.964;9.406;2022-11-18T04:02:00;7.60;99.90
13344;DHT22;6741;48.964;9.406;2022-11-18T04:04:29;7.60;99.90
13344;DHT22;6741;48.964;9.406;2022-11-18T04:07:01;7.50;99.90
13344;DHT22;6741;48.964;9.406;2022-11-18T04:09:32;7.50;99.90
13344;DHT22;6741;48.964;9.406;2022-11-18T04:12:04;7.40;99.90
13344;DHT22;6741;48.964;9.406;2022-11-18T04:14:35;7.40;99.90
13344;DHT22;6741;48.964;9.406;2022-11-18T04:17:08;7.40;99.90
13344;DHT22;6741;48.964;9.406;2022-11-18T04:19:35;7.40;99.90
13344;DHT22;6741;48.964;9.406;2022-11-18T04:22:03;7.40;99.90
13344;DHT22;6741;48.964;9.406;2022-11-18T04:24:30;7.40;99.90
13344;DHT22;6741;48.964;9.406;2022-11-18T04:26:57;7.40;99.90
13344;DHT22;6741;48.964;9.406;2022-11-18T04:29:25;7.30;99.90
13344;DHT22;6741;48.964;9.406;2022-11-18T04:31:51;7.30;99.90
13344;DHT22;6741;48.964;9.406;2022-11-18T04:34:20;7.30;99.90
13344;DHT22;6741;48.964;9.406;2022-11-18T04:36:47;7.30;99.90
13344;DHT22;6741;48.964;9.406;2022-11-18T04:39:14;7.30;99.90
13344;DHT22;6741;48.964;9.406;2022-11-18T04:41:42;7.20;99.90
13344;DHT22;6741;48.964;9.406;2022-11-18T04:44:21;7.20;99.90
13344;DHT22;6741;48.964;9.406;2022-11-18T04:46:48;7.20;99.90
13344;DHT22;6741;48.964;9.406;2022-11-18T04:49:16;7.20;99.90
13344;DHT22;6741;48.964;9.406;2022-11-18T04:51:44;7.20;99.90
13344;DHT22;6741;48.964;9.406;2022-11-18T04:54:12;7.20;99.90
13344;DHT22;6741;48.964;9.406;2022-11-18T04:56:39;7.10;99.90
13344;DHT22;6741;48.964;9.406;2022-11-18T04:59:07;7.20;99.90
13344;DHT22;6741;48.964;9.406;2022-11-18T05:01:34;7.10;99.90
13344;DHT22;6741;48.964;9.406;2022-11-18T05:04:02;7.20;99.90
13344;DHT22;6741;48.964;9.406;2022-11-18T05:06:31;7.30;99.90
13344;DHT22;6741;48.964;9.406;2022-11-18T05:09:00;7.30;99.90
13344;DHT22;6741;48.964;9.406;2022-11-18T05:11:27;7.20;99.90
13344;DHT22;6741;48.964;9.406;2022-11-18T05:14:12;7.20;99.90
13344;DHT22;6741;48.964;9.406;2022-11-18T05:16:39;7.20;99.90
13344;DHT22;6741;48.964;9.406;2022-11-18T05:19:07;7.10;99.90
13344;DHT22;6741;48.964;9.406;2022-11-18T05:21:34;7.10;99.90
13344;DHT22;6741;48.964;9.406;2022-11-18T05:24:03;7.10;99.90
13344;DHT22;6741;48.964;9.406;2022-11-18T05:26:30;7.10;99.90
13344;DHT22;6741;48.964;9.406;2022-11-18T05:28:58;7.10;99.90
13344;DHT22;6741;48.964;9.406;2022-11-18T05:31:25;7.10;99.90
13344;DHT22;6741;48.964;9.406;2022-11-18T05:33:52;7.10;99.90
13344;DHT22;6741;48.964;9.406;2022-11-18T05:36:20;7.10;99.90
13344;DHT22;6741;48.964;9.406;2022-11-18T05:38:48;7.00;99.90
13344;DHT22;6741;48.964;9.406;2022-11-18T05:41:17;7.00;99.90
13344;DHT22;6741;48.964;9.406;2022-11-18T05:43:58;7.00;99.90
13344;DHT22;6741;48.964;9.406;2022-11-18T05:46:25;7.00;99.90
13344;DHT22;6741;48.964;9.406;2022-11-18T05:48:52;7.00;99.90
13344;DHT22;6741;48.964;9.406;2022-11-18T05:51:19;6.90;99.90
13344;DHT22;6741;48.964;9.406;2022-11-18T05:53:47;6.90;99.90
13344;DHT22;6741;48.964;9.406;2022-11-18T05:56:19;6.90;99.90
13344;DHT22;6741;48.964;9.406;2022-11-18T05:58:48;7.00;99.90
13344;DHT22;6741;48.964;9.406;2022-11-18T06:01:17;7.00;99.90
13344;DHT22;6741;48.964;9.406;2022-11-18T06:03:46;7.10;99.90
13344;DHT22;6741;48.964;9.406;2022-11-18T06:06:14;7.00;99.90
13344;DHT22;6741;48.964;9.406;2022-11-18T06:08:45;7.10;99.90
13344;DHT22;6741;48.964;9.406;2022-11-18T06:11:16;7.10;99.90
13344;DHT22;6741;48.964;9.406;2022-11-18T06:13:47;7.10;99.90
13344;DHT22;6741;48.964;9.406;2022-11-18T06:16:17;7.00;99.90
13344;DHT22;6741;48.964;9.406;2022-11-18T06:18:45;7.10;99.90
13344;DHT22;6741;48.964;9.406;2022-11-18T06:21:12;7.00;99.90
13344;DHT22;6741;48.964;9.406;2022-11-18T06:23:40;7.10;99.90
13344;DHT22;6741;48.964;9.406;2022-11-18T06:26:08;7.10;99.90
13344;DHT22;6741;48.964;9.406;2022-11-18T06:28:39;7.10;99.90
13344;DHT22;6741;48.964;9.406;2022-11-18T06:31:06;7.10;99.90
13344;DHT22;6741;48.964;9.406;2022-11-18T06:33:33;7.10;99.90
13344;DHT22;6741;48.964;9.406;2022-11-18T06:36:00;7.10;99.90
13344;DHT22;6741;48.964;9.406;2022-11-18T06:38:27;7.00;99.90
13344;DHT22;6741;48.964;9.406;2022-11-18T06:40:58;7.00;99.90
13344;DHT22;6741;48.964;9.406;2022-11-18T06:43:25;7.00;99.90
13344;DHT22;6741;48.964;9.406;2022-11-18T06:46:12;7.00;99.90
13344;DHT22;6741;48.964;9.406;2022-11-18T06:49:02;7.00;99.90
13344;DHT22;6741;48.964;9.406;2022-11-18T06:51:30;7.10;99.90
13344;DHT22;6741;48.964;9.406;2022-11-18T06:53:57;7.10;99.90
13344;DHT22;6741;48.964;9.406;2022-11-18T06:56:24;7.10;99.90
13344;DHT22;6741;48.964;9.406;2022-11-18T06:58:55;7.00;99.90
13344;DHT22;6741;48.964;9.406;2022-11-18T07:01:25;7.00;99.90
13344;DHT22;6741;48.964;9.406;2022-11-18T07:03:53;7.00;99.90
13344;DHT22;6741;48.964;9.406;2022-11-18T07:06:22;7.00;99.90
13344;DHT22;6741;48.964;9.406;2022-11-18T07:08:50;7.00;99.90
13344;DHT22;6741;48.964;9.406;2022-11-18T07:11:19;7.00;99.90
13344;DHT22;6741;48.964;9.406;2022-11-18T07:13:46;6.90;99.90
13344;DHT22;6741;48.964;9.406;2022-11-18T07:16:15;6.90;99.90
13344;DHT22;6741;48.964;9.406;2022-11-18T07:18:45;6.80;99.90
13344;DHT22;6741;48.964;9.406;2022-11-18T07:21:14;6.90;99.90
13344;DHT22;6741;48.964;9.406;2022-11-18T07:23:42;6.90;99.90
13344;DHT22;6741;48.964;9.406;2022-11-18T07:26:09;6.90;99.90
13344;DHT22;6741;48.964;9.406;2022-11-18T07:28:36;6.80;99.90
13344;DHT22;6741;48.964;9.406;2022-11-18T07:31:05;6.80;99.90
13344;DHT22;6741;48.964;9.406;2022-11-18T07:33:33;6.90;99.90
13344;DHT22;6741;48.964;9.406;2022-11-18T07:36:03;6.90;99.90
13344;DHT22;6741;48.964;9.406;2022-11-18T07:38:30;6.90;99.90
13344;DHT22;6741;48.964;9.406;2022-11-18T07:41:03;6.80;99.90
13344;DHT22;6741;48.964;9.406;2022-11-18T07:43:31;6.80;99.90
13344;DHT22;6741;48.964;9.406;2022-11-18T07:45:58;6.80;99.90
13344;DHT22;6741;48.964;9.406;2022-11-18T07:48:25;6.80;99.90
13344;DHT22;6741;48.964;9.406;2022-11-18T07:50:52;6.70;99.90
13344;DHT22;6741;48.964;9.406;2022-11-18T07:53:20;6.70;99.90
13344;DHT22;6741;48.964;9.406;2022-11-18T07:55:47;6.80;99.90
13344;DHT22;6741;48.964;9.406;2022-11-18T07:58:14;6.80;99.90
13344;DHT22;6741;48.964;9.406;2022-11-18T08:00:41;6.80;99.90
13344;DHT22;6741;48.964;9.406;2022-11-18T08:03:08;6.80;99.90
13344;DHT22;6741;48.964;9.406;2022-11-18T08:05:35;6.90;99.90
13344;DHT22;6741;48.964;9.406;2022-11-18T08:08:02;6.80;99.90
13344;DHT22;6741;48.964;9.406;2022-11-18T08:10:30;6.80;99.90
13344;DHT22;6741;48.964;9.406;2022-11-18T08:12:57;6.80;99.90
13344;DHT22;6741;48.964;9.406;2022-11-18T08:15:24;6.80;99.90
13344;DHT22;6741;48.964;9.406;2022-11-18T08:17:51;6.80;99.90
13344;DHT22;6741;48.964;9.406;2022-11-18T08:20:18;6.80;99.90
13344;DHT22;6741;48.964;9.406;2022-11-18T08:22:45;6.90;99.90
13344;DHT22;6741;48.964;9.406;2022-11-18T08:25:12;6.90;99.90
13344;DHT22;6741;48.964;9.406;2022-11-18T08:27:40;6.80;99.90
13344;DHT22;6741;48.964;9.406;2022-11-18T08:30:08;6.80;99.90
13344;DHT22;6741;48.964;9.406;2022-11-18T08:32:36;6.80;99.90
13344;DHT22;6741;48.964;9.406;2022-11-18T08:35:03;6.80;99.90
13344;DHT22;6741;48.964;9.406;2022-11-18T08:37:30;6.80;99.90
13344;DHT22;6741;48.964;9.406;2022-11-18T08:39:57;6.90;99.90
13344;DHT22;6741;48.964;9.406;2022-11-18T08:42:24;6.90;99.90
13344;DHT22;6741;48.964;9.406;2022-11-18T08:44:52;6.90;99.90
13344;DHT22;6741;48.964;9.406;2022-11-18T08:47:19;6.90;99.90
13344;DHT22;6741;48.964;9.406;2022-11-18T08:49:46;6.90;99.90
13344;DHT22;6741;48.964;9.406;2022-11-18T08:52:13;7.00;99.90
13344;DHT22;6741;48.964;9.406;2022-11-18T08:54:40;7.00;99.90
13344;DHT22;6741;48.964;9.406;2022-11-18T08:57:07;7.00;99.90
13344;DHT22;6741;48.964;9.406;2022-11-18T08:59:34;7.00;99.90
13344;DHT22;6741;48.964;9.406;2022-11-18T09:02:02;7.00;99.90
13344;DHT22;6741;48.964;9.406;2022-11-18T09:04:29;7.00;99.90
13344;DHT22;6741;48.964;9.406;2022-11-18T09:06:56;7.10;99.90
13344;DHT22;6741;48.964;9.406;2022-11-18T09:09:23;7.10;99.90
13344;DHT22;6741;48.964;9.406;2022-11-18T09:11:50;7.10;99.90
13344;DHT22;6741;48.964;9.406;2022-11-18T09:14:17;7.20;99.90
13344;DHT22;6741;48.964;9.406;2022-11-18T09:16:44;7.10;99.90
13344;DHT22;6741;48.964;9.406;2022-11-18T09:19:13;7.10;99.90
13344;DHT22;6741;48.964;9.406;2022-11-18T09:21:41;7.20;99.90
13344;DHT22;6741;48.964;9.406;2022-11-18T09:24:08;7.20;99.90
13344;DHT22;6741;48.964;9.406;2022-11-18T09:26:36;7.20;99.90
13344;DHT22;6741;48.964;9.406;2022-11-18T09:29:03;7.20;99.90
13344;DHT22;6741;48.964;9.406;2022-11-18T09:31:30;7.10;99.90
13344;DHT22;6741;48.964;9.406;2022-11-18T09:33:58;7.20;99.90
13344;DHT22;6741;48.964;9.406;2022-11-18T09:36:27;7.20;99.90
13344;DHT22;6741;48.964;9.406;2022-11-18T09:38:54;7.30;99.90
13344;DHT22;6741;48.964;9.406;2022-11-18T09:41:32;7.20;99.90
13344;DHT22;6741;48.964;9.406;2022-11-18T09:44:08;7.20;99.90
13344;DHT22;6741;48.964;9.406;2022-11-18T09:46:52;7.30;99.90
13344;DHT22;6741;48.964;9.406;2022-11-18T09:49:25;7.20;99.90
13344;DHT22;6741;48.964;9.406;2022-11-18T09:51:54;7.30;99.90
13344;DHT22;6741;48.964;9.406;2022-11-18T09:54:23;7.40;99.90
13344;DHT22;6741;48.964;9.406;2022-11-18T09:56:52;7.40;99.90
13344;DHT22;6741;48.964;9.406;2022-11-18T09:59:21;7.40;99.90
13344;DHT22;6741;48.964;9.406;2022-11-18T10:01:50;7.40;99.90
13344;DHT22;6741;48.964;9.406;2022-11-18T10:04:19;7.50;99.90
13344;DHT22;6741;48.964;9.406;2022-11-18T10:06:47;7.60;99.90
13344;DHT22;6741;48.964;9.406;2022-11-18T10:09:25;7.70;99.90
13344;DHT22;6741;48.964;9.406;2022-11-18T10:12:13;7.70;99.90
13344;DHT22;6741;48.964;9.406;2022-11-18T10:14:51;7.70;99.90
13344;DHT22;6741;48.964;9.406;2022-11-18T10:17:34;7.70;99.90
13344;DHT22;6741;48.964;9.406;2022-11-18T10:20:13;7.60;99.90
13344;DHT22;6741;48.964;9.406;2022-11-18T10:22:47;7.70;99.90
13344;DHT22;6741;48.964;9.406;2022-11-18T10:25:17;7.60;99.90
13344;DHT22;6741;48.964;9.406;2022-11-18T10:27:46;7.50;99.90
13344;DHT22;6741;48.964;9.406;2022-11-18T10:30:22;7.60;99.90
13344;DHT22;6741;48.964;9.406;2022-11-18T10:32:57;7.60;99.90
13344;DHT22;6741;48.964;9.406;2022-11-18T10:35:28;7.60;99.90
13344;DHT22;6741;48.964;9.406;2022-11-18T10:38:01;7.60;99.90
13344;DHT22;6741;48.964;9.406;2022-11-18T10:40:31;7.60;99.90
13344;DHT22;6741;48.964;9.406;2022-11-18T10:42:59;7.70;99.90
13344;DHT22;6741;48.964;9.406;2022-11-18T10:45:28;7.80;99.90
13344;DHT22;6741;48.964;9.406;2022-11-18T10:48:07;7.90;99.90
13344;DHT22;6741;48.964;9.406;2022-11-18T10:50:36;8.10;99.90
13344;DHT22;6741;48.964;9.406;2022-11-18T10:53:04;8.00;99.90
13344;DHT22;6741;48.964;9.406;2022-11-18T10:55:32;8.00;99.90
13344;DHT22;6741;48.964;9.406;2022-11-18T10:58:02;8.10;99.90
13344;DHT22;6741;48.964;9.406;2022-11-18T11:00:42;8.10;99.90
13344;DHT22;6741;48.964;9.406;2022-11-18T11:03:21;8.30;99.90
13344;DHT22;6741;48.964;9.406;2022-11-18T11:05:48;8.30;99.90
13344;DHT22;6741;48.964;9.406;2022-11-18T11:08:46;8.30;99.90
13344;DHT22;6741;48.964;9.406;2022-11-18T11:11:22;8.30;99.90
13344;DHT22;6741;48.964;9.406;2022-11-18T11:14:19;8.30;99.90
13344;DHT22;6741;48.964;9.406;2022-11-18T11:16:55;8.40;99.90
13344;DHT22;6741;48.964;9.406;2022-11-18T11:19:28;8.30;99.90
13344;DHT22;6741;48.964;9.406;2022-11-18T11:21:57;8.30;99.90
13344;DHT22;6741;48.964;9.406;2022-11-18T11:24:25;8.30;99.90
13344;DHT22;6741;48.964;9.406;2022-11-18T11:27:03;8.30;99.90
13344;DHT22;6741;48.964;9.406;2022-11-18T11:30:01;8.30;99.90
13344;DHT22;6741;48.964;9.406;2022-11-18T11:32:37;8.40;99.90
13344;DHT22;6741;48.964;9.406;2022-11-18T11:35:12;8.30;99.90
13344;DHT22;6741;48.964;9.406;2022-11-18T11:37:50;8.30;99.90
13344;DHT22;6741;48.964;9.406;2022-11-18T11:40:24;8.30;99.90
13344;DHT22;6741;48.964;9.406;2022-11-18T11:43:07;8.50;99.90
13344;DHT22;6741;48.964;9.406;2022-11-18T11:45:42;8.60;99.90
13344;DHT22;6741;48.964;9.406;2022-11-18T11:48:23;8.60;99.90
13344;DHT22;6741;48.964;9.406;2022-11-18T11:50:58;8.50;99.90
13344;DHT22;6741;48.964;9.406;2022-11-18T11:53:50;8.60;99.90
13344;DHT22;6741;48.964;9.406;2022-11-18T11:56:26;8.70;99.90
13344;DHT22;6741;48.964;9.406;2022-11-18T11:59:11;8.90;99.90
13344;DHT22;6741;48.964;9.406;2022-11-18T12:02:08;8.80;99.90
13344;DHT22;6741;48.964;9.406;2022-11-18T12:04:41;8.80;99.90
13344;DHT22;6741;48.964;9.406;2022-11-18T12:07:14;8.80;99.90
13344;DHT22;6741;48.964;9.406;2022-11-18T12:10:00;8.90;99.90
13344;DHT22;6741;48.964;9.406;2022-11-18T12:12:32;9.00;99.90
13344;DHT22;6741;48.964;9.406;2022-11-18T12:15:14;8.90;99.90
13344;DHT22;6741;48.964;9.406;2022-11-18T12:17:50;8.80;99.90
13344;DHT22;6741;48.964;9.406;2022-11-18T12:20:41;8.70;99.90
13344;DHT22;6741;48.964;9.406;2022-11-18T12:23:11;8.90;99.90
13344;DHT22;6741;48.964;9.406;2022-11-18T12:25:56;9.00;99.90
13344;DHT22;6741;48.964;9.406;2022-11-18T12:28:25;9.30;99.90
13344;DHT22;6741;48.964;9.406;2022-11-18T12:31:32;9.30;99.90
13344;DHT22;6741;48.964;9.406;2022-11-18T12:36:46;9.20;99.90
13344;DHT22;6741;48.964;9.406;2022-11-18T12:39:45;9.30;99.90
13344;DHT22;6741;48.964;9.406;2022-11-18T12:42:35;9.40;99.90
13344;DHT22;6741;48.964;9.406;2022-11-18T12:45:50;9.50;99.90
13344;DHT22;6741;48.964;9.406;2022-11-18T12:48:32;9.50;99.90
13344;DHT22;6741;48.964;9.406;2022-11-18T12:51:01;9.30;99.90
13344;DHT22;6741;48.964;9.406;2022-11-18T12:53:34;9.30;99.90
13344;DHT22;6741;48.964;9.406;2022-11-18T12:56:20;9.40;99.90
13344;DHT22;6741;48.964;9.406;2022-11-18T12:58:49;9.60;99.90
13344;DHT22;6741;48.964;9.406;2022-11-18T13:01:19;9.90;99.90
13344;DHT22;6741;48.964;9.406;2022-11-18T13:03:48;9.70;99.90
13344;DHT22;6741;48.964;9.406;2022-11-18T13:06:22;9.90;99.90
13344;DHT22;6741;48.964;9.406;2022-11-18T13:08:53;9.70;99.90
13344;DHT22;6741;48.964;9.406;2022-11-18T13:11:24;9.90;99.90
13344;DHT22;6741;48.964;9.406;2022-11-18T13:14:14;10.10;99.90
13344;DHT22;6741;48.964;9.406;2022-11-18T13:17:02;9.80;99.90
13344;DHT22;6741;48.964;9.406;2022-11-18T13:19:57;9.30;99.90
13344;DHT22;6741;48.964;9.406;2022-11-18T13:22:24;9.20;99.90
13344;DHT22;6741;48.964;9.406;2022-11-18T13:25:22;8.90;99.90
13344;DHT22;6741;48.964;9.406;2022-11-18T13:27:55;8.80;99.90
13344;DHT22;6741;48.964;9.406;2022-11-18T13:30:25;8.80;99.90
13344;DHT22;6741;48.964;9.406;2022-11-18T13:32:57;8.80;99.90
13344;DHT22;6741;48.964;9.406;2022-11-18T13:35:26;8.70;99.90
13344;DHT22;6741;48.964;9.406;2022-11-18T13:37:57;8.70;99.90
13344;DHT22;6741;48.964;9.406;2022-11-18T13:40:26;8.70;99.90
13344;DHT22;6741;48.964;9.406;2022-11-18T13:42:53;8.70;99.90
13344;DHT22;6741;48.964;9.406;2022-11-18T13:45:22;8.60;99.90
13344;DHT22;6741;48.964;9.406;2022-11-18T13:47:52;8.60;99.90
13344;DHT22;6741;48.964;9.406;2022-11-18T13:50:26;8.60;99.90
13344;DHT22;6741;48.964;9.406;2022-11-18T13:53:04;8.50;99.90
13344;DHT22;6741;48.964;9.406;2022-11-18T13:55:35;8.40;99.90
13344;DHT22;6741;48.964;9.406;2022-11-18T13:58:05;8.30;99.90
13344;DHT22;6741;48.964;9.406;2022-11-18T14:00:38;8.30;99.90
13344;DHT22;6741;48.964;9.406;2022-11-18T14:03:23;8.20;99.90
13344;DHT22;6741;48.964;9.406;2022-11-18T14:05:53;8.20;99.90
13344;DHT22;6741;48.964;9.406;2022-11-18T14:08:25;8.20;99.90
13344;DHT22;6741;48.964;9.406;2022-11-18T14:10:53;8.20;99.90
13344;DHT22;6741;48.964;9.406;2022-11-18T14:13:24;8.20;99.90
13344;DHT22;6741;48.964;9.406;2022-11-18T14:15:54;8.20;99.90
13344;DHT22;6741;48.964;9.406;2022-11-18T14:18:29;8.30;99.90
13344;DHT22;6741;48.964;9.406;2022-11-18T14:21:00;8.30;99.90
13344;DHT22;6741;48.964;9.406;2022-11-18T14:23:29;8.40;99.90
13344;DHT22;6741;48.964;9.406;2022-11-18T14:25:57;8.50;99.90
13344;DHT22;6741;48.964;9.406;2022-11-18T14:28:27;8.50;99.90
13344;DHT22;6741;48.964;9.406;2022-11-18T14:31:03;8.50;99.90
13344;DHT22;6741;48.964;9.406;2022-11-18T14:33:32;8.40;99.90
13344;DHT22;6741;48.964;9.406;2022-11-18T14:36:08;8.30;99.90
13344;DHT22;6741;48.964;9.406;2022-11-18T14:38:43;8.30;99.90
13344;DHT22;6741;48.964;9.406;2022-11-18T14:41:12;8.30;99.90
13344;DHT22;6741;48.964;9.406;2022-11-18T14:43:42;8.30;99.90
13344;DHT22;6741;48.964;9.406;2022-11-18T14:46:14;8.30;99.90
13344;DHT22;6741;48.964;9.406;2022-11-18T14:48:43;8.30;99.90
13344;DHT22;6741;48.964;9.406;2022-11-18T14:51:14;8.30;99.90
13344;DHT22;6741;48.964;9.406;2022-11-18T14:53:43;8.30;99.90
13344;DHT22;6741;48.964;9.406;2022-11-18T14:56:12;8.30;99.90
13344;DHT22;6741;48.964;9.406;2022-11-18T14:58:41;8.30;99.90
13344;DHT22;6741;48.964;9.406;2022-11-18T15:01:10;8.30;99.90
13344;DHT22;6741;48.964;9.406;2022-11-18T15:03:37;8.30;99.90
13344;DHT22;6741;48.964;9.406;2022-11-18T15:06:09;8.30;99.90
13344;DHT22;6741;48.964;9.406;2022-11-18T15:08:38;8.20;99.90
13344;DHT22;6741;48.964;9.406;2022-11-18T15:11:05;8.10;99.90
13344;DHT22;6741;48.964;9.406;2022-11-18T15:13:32;8.00;99.90
13344;DHT22;6741;48.964;9.406;2022-11-18T15:16:00;8.00;99.90
13344;DHT22;6741;48.964;9.406;2022-11-18T15:18:28;7.90;99.90
13344;DHT22;6741;48.964;9.406;2022-11-18T15:20:55;7.90;99.90
13344;DHT22;6741;48.964;9.406;2022-11-18T15:23:22;7.80;99.90
13344;DHT22;6741;48.964;9.406;2022-11-18T15:25:51;7.80;99.90
13344;DHT22;6741;48.964;9.406;2022-11-18T15:28:18;7.70;99.90
13344;DHT22;6741;48.964;9.406;2022-11-18T15:30:45;7.70;99.90
13344;DHT22;6741;48.964;9.406;2022-11-18T15:33:12;7.60;99.90
13344;DHT22;6741;48.964;9.406;2022-11-18T15:35:39;7.50;99.90
13344;DHT22;6741;48.964;9.406;2022-11-18T15:38:05;7.50;99.90
13344;DHT22;6741;48.964;9.406;2022-11-18T15:40:32;7.50;99.90
13344;DHT22;6741;48.964;9.406;2022-11-18T15:43:01;7.40;99.90
13344;DHT22;6741;48.964;9.406;2022-11-18T15:45:28;7.40;99.90
13344;DHT22;6741;48.964;9.406;2022-11-18T15:47:55;7.40;99.90
13344;DHT22;6741;48.964;9.406;2022-11-18T15:50:22;7.30;99.90
13344;DHT22;6741;48.964;9.406;2022-11-18T15:52:49;7.30;99.90
13344;DHT22;6741;48.964;9.406;2022-11-18T15:55:16;7.30;99.90
13344;DHT22;6741;48.964;9.406;2022-11-18T15:57:43;7.40;99.90
13344;DHT22;6741;48.964;9.406;2022-11-18T16:00:15;7.50;99.90
13344;DHT22;6741;48.964;9.406;2022-11-18T16:02:42;7.50;99.90
13344;DHT22;6741;48.964;9.406;2022-11-18T16:05:09;7.50;99.90
13344;DHT22;6741;48.964;9.406;2022-11-18T16:07:36;7.50;99.90
13344;DHT22;6741;48.964;9.406;2022-11-18T16:10:04;7.50;99.90
13344;DHT22;6741;48.964;9.406;2022-11-18T16:12:48;7.50;99.90
13344;DHT22;6741;48.964;9.406;2022-11-18T16:15:16;7.60;99.90
13344;DHT22;6741;48.964;9.406;2022-11-18T16:18:01;7.60;99.90
13344;DHT22;6741;48.964;9.406;2022-11-18T16:20:29;7.70;99.90
13344;DHT22;6741;48.964;9.406;2022-11-18T16:22:56;7.70;99.90
13344;DHT22;6741;48.964;9.406;2022-11-18T16:25:23;7.60;99.90
13344;DHT22;6741;48.964;9.406;2022-11-18T16:27:50;7.50;99.90
13344;DHT22;6741;48.964;9.406;2022-11-18T16:30:18;7.50;99.90
13344;DHT22;6741;48.964;9.406;2022-11-18T16:33:03;7.40;99.90